Bruce Crossing, Michigan
Current Conditions -  °F | °C
As of 12:35 PM on Friday 24 Oct 2014 (Local Time) from KLNL Reporting Station
Scattered Clouds Scattered Clouds  
Wind Chill: 47°   Ceiling: Unl
Heat Index: 50°   Visibility: 10mi
Dew Point: 50°   Wind: 6mph
Humidity: 100%   Direction: 180°S
Pressure: 29.93"   Gusts: NA
Location:  46.53°N, 89.18°W
Report Text: KLNL 241635Z AUTO 18005KT 10SM SCT003 10/10 A2993 RMK AO2 T00980098
Loading
Personal Weather Stations






























Interactive Weather Map
Tropical Storm Tracking
New forecast layout! Learn more

10-Day Weather Forecast

Advertisements
Track Severe Weather on mobile